Akinci, Turkey

3:33 AM EEST on September 28, 2016 (GMT +0300)
Akinci Air Base | | Change Station

Elev 2766 ft 40.08 °N, 32.57 °E | Updated 18 minutes ago

Mostly Cloudy
Mostly Cloudy
52 °F
Feels Like 52 °F
N
5
Wind Variable Wind from SW

Today
High -- | Low -- °F
--% Chance of Precip.
Yesterday
High -- | Low -- °F
Precip. -- in
Pressure 30.21 in
Visibility 6.2 miles
Clouds Few 3000 ft
Mostly Cloudy 3500 ft
Dew Point 46 °F
Humidity 82%
Rainfall 0.00 in
Snow Depth Not available.
6:43 AM 6:36 PM
Waning Crescent, 9% visible
SPECI LTAE 280015Z 22004KT 9999 FEW030CB BKN035 11/08 Q1023 RESHRA NOSIG RMK RWY21 25003KT 230V300
Pressure 30.21 in
Visibility 6.2 miles
Clouds Few 3000 ft
Mostly Cloudy 3500 ft
Dew Point 46 °F
Humidity 82%
Rainfall 0.00 in
Snow Depth Not available.
6:43 AM 6:36 PM
Waning Crescent, 9% visible
SPECI LTAE 280015Z 22004KT 9999 FEW030CB BKN035 11/08 Q1023 RESHRA NOSIG RMK RWY21 25003KT 230V300

10-Day Weather Forecast

×

Almanac

Astronomy

Sep. 28, 2016 Rise Set
Actual Time
Civil Twilight
Nautical Twilight
Astronomical Twilight
Moon
Length of Visible Light
Length of Day
Tomorrow will be .
, % of the Moon is Illuminated

Today's Extremes

Country Highs Country Lows

Community

WunderPhotos

Upload Photos

1,942,179 photos uploaded!

WunderBlog® & News

Nearby

Air Quality

  Air Quality AQ Index Pollutant
Not available.

Snow Depth

Station Depth Elevation

Earthquake Activity

City Distance Mag. Time & Date
Minimum magnitude displayed is 2.5.

Coastal Water Temperatures

Place Temperature

Stations

Nearby Weather Stations

Station Location Temp. Windchill Dew Point Humidity Wind Precip. Elev Updated Type